sensor_id;sensor_type;location;lat;lon;timestamp;P1;durP1;ratioP1;P2;durP2;ratioP2
61907;SDS011;47864;52.526;19.672;2022-11-15T00:00:39;70.93;;;33.33;;
61907;SDS011;47864;52.526;19.672;2022-11-15T00:02:41;73.20;;;33.65;;
61907;SDS011;47864;52.526;19.672;2022-11-15T00:04:43;72.47;;;34.00;;
61907;SDS011;47864;52.526;19.672;2022-11-15T00:06:45;73.07;;;33.55;;
61907;SDS011;47864;52.526;19.672;2022-11-15T00:08:46;66.68;;;33.13;;
61907;SDS011;47864;52.526;19.672;2022-11-15T00:10:55;63.60;;;32.50;;
61907;SDS011;47864;52.526;19.672;2022-11-15T00:12:57;69.53;;;33.03;;
61907;SDS011;47864;52.526;19.672;2022-11-15T00:14:59;67.68;;;34.30;;
61907;SDS011;47864;52.526;19.672;2022-11-15T00:17:01;70.10;;;33.90;;
61907;SDS011;47864;52.526;19.672;2022-11-15T00:19:03;67.78;;;33.05;;
61907;SDS011;47864;52.526;19.672;2022-11-15T00:21:06;70.03;;;33.47;;
61907;SDS011;47864;52.526;19.672;2022-11-15T00:23:10;71.28;;;33.92;;
61907;SDS011;47864;52.526;19.672;2022-11-15T00:25:12;72.45;;;34.38;;
61907;SDS011;47864;52.526;19.672;2022-11-15T00:27:14;69.85;;;33.60;;
61907;SDS011;47864;52.526;19.672;2022-11-15T00:29:15;71.70;;;34.20;;
61907;SDS011;47864;52.526;19.672;2022-11-15T00:31:17;72.43;;;34.30;;
61907;SDS011;47864;52.526;19.672;2022-11-15T00:33:19;70.45;;;33.03;;
61907;SDS011;47864;52.526;19.672;2022-11-15T00:35:21;71.93;;;34.05;;
61907;SDS011;47864;52.526;19.672;2022-11-15T00:37:23;71.93;;;33.45;;
61907;SDS011;47864;52.526;19.672;2022-11-15T00:39:25;72.85;;;34.47;;
61907;SDS011;47864;52.526;19.672;2022-11-15T00:41:26;68.65;;;33.22;;
61907;SDS011;47864;52.526;19.672;2022-11-15T00:43:28;71.60;;;34.80;;
61907;SDS011;47864;52.526;19.672;2022-11-15T00:45:30;69.90;;;34.33;;
61907;SDS011;47864;52.526;19.672;2022-11-15T00:47:32;73.03;;;33.53;;
61907;SDS011;47864;52.526;19.672;2022-11-15T00:49:34;76.03;;;34.55;;
61907;SDS011;47864;52.526;19.672;2022-11-15T00:51:36;71.85;;;33.72;;
61907;SDS011;47864;52.526;19.672;2022-11-15T00:53:37;72.57;;;32.92;;
61907;SDS011;47864;52.526;19.672;2022-11-15T00:55:39;70.43;;;34.15;;
61907;SDS011;47864;52.526;19.672;2022-11-15T00:57:41;74.38;;;33.83;;
61907;SDS011;47864;52.526;19.672;2022-11-15T00:59:43;72.38;;;35.28;;
61907;SDS011;47864;52.526;19.672;2022-11-15T01:01:44;70.32;;;34.58;;
61907;SDS011;47864;52.526;19.672;2022-11-15T01:03:46;71.85;;;34.60;;
61907;SDS011;47864;52.526;19.672;2022-11-15T01:05:48;72.88;;;34.83;;
61907;SDS011;47864;52.526;19.672;2022-11-15T01:07:53;71.72;;;33.72;;
61907;SDS011;47864;52.526;19.672;2022-11-15T01:09:55;76.78;;;36.03;;
61907;SDS011;47864;52.526;19.672;2022-11-15T01:11:57;74.53;;;34.47;;
61907;SDS011;47864;52.526;19.672;2022-11-15T01:13:59;69.32;;;32.33;;
61907;SDS011;47864;52.526;19.672;2022-11-15T01:16:11;73.25;;;34.45;;
61907;SDS011;47864;52.526;19.672;2022-11-15T01:18:16;77.05;;;34.42;;
61907;SDS011;47864;52.526;19.672;2022-11-15T01:20:17;70.20;;;33.13;;
61907;SDS011;47864;52.526;19.672;2022-11-15T01:22:19;73.20;;;34.85;;
61907;SDS011;47864;52.526;19.672;2022-11-15T01:24:21;78.22;;;35.78;;
61907;SDS011;47864;52.526;19.672;2022-11-15T01:26:23;77.57;;;35.15;;
61907;SDS011;47864;52.526;19.672;2022-11-15T01:28:29;75.05;;;35.38;;
61907;SDS011;47864;52.526;19.672;2022-11-15T01:30:33;81.38;;;36.33;;
61907;SDS011;47864;52.526;19.672;2022-11-15T01:32:35;74.47;;;36.35;;
61907;SDS011;47864;52.526;19.672;2022-11-15T01:34:36;79.25;;;34.90;;
61907;SDS011;47864;52.526;19.672;2022-11-15T01:36:38;73.15;;;33.95;;
61907;SDS011;47864;52.526;19.672;2022-11-15T01:38:40;74.80;;;34.75;;
61907;SDS011;47864;52.526;19.672;2022-11-15T01:40:42;73.80;;;33.13;;
61907;SDS011;47864;52.526;19.672;2022-11-15T01:42:44;76.85;;;35.35;;
61907;SDS011;47864;52.526;19.672;2022-11-15T01:44:47;76.93;;;34.08;;
61907;SDS011;47864;52.526;19.672;2022-11-15T01:46:50;78.75;;;34.70;;
61907;SDS011;47864;52.526;19.672;2022-11-15T01:48:52;80.65;;;35.15;;
61907;SDS011;47864;52.526;19.672;2022-11-15T01:50:56;87.57;;;35.28;;
61907;SDS011;47864;52.526;19.672;2022-11-15T01:53:00;76.45;;;34.80;;
61907;SDS011;47864;52.526;19.672;2022-11-15T01:55:14;79.13;;;35.95;;
61907;SDS011;47864;52.526;19.672;2022-11-15T01:57:19;80.65;;;34.72;;
61907;SDS011;47864;52.526;19.672;2022-11-15T01:59:21;84.13;;;35.65;;
61907;SDS011;47864;52.526;19.672;2022-11-15T02:01:24;80.85;;;34.63;;
61907;SDS011;47864;52.526;19.672;2022-11-15T02:03:31;74.32;;;33.17;;
61907;SDS011;47864;52.526;19.672;2022-11-15T02:05:39;80.70;;;34.22;;
61907;SDS011;47864;52.526;19.672;2022-11-15T02:07:42;92.60;;;38.20;;
61907;SDS011;47864;52.526;19.672;2022-11-15T02:09:44;82.93;;;34.53;;
61907;SDS011;47864;52.526;19.672;2022-11-15T02:11:47;83.85;;;34.53;;
61907;SDS011;47864;52.526;19.672;2022-11-15T02:13:51;81.63;;;35.40;;
61907;SDS011;47864;52.526;19.672;2022-11-15T02:16:13;86.90;;;35.08;;
61907;SDS011;47864;52.526;19.672;2022-11-15T02:18:18;88.68;;;35.15;;
61907;SDS011;47864;52.526;19.672;2022-11-15T02:27:47;88.63;;;36.85;;
61907;SDS011;47864;52.526;19.672;2022-11-15T02:32:20;85.00;;;34.47;;
61907;SDS011;47864;52.526;19.672;2022-11-15T02:42:32;101.03;;;35.65;;
61907;SDS011;47864;52.526;19.672;2022-11-15T02:44:39;99.45;;;36.30;;
61907;SDS011;47864;52.526;19.672;2022-11-15T02:46:49;96.78;;;37.33;;
61907;SDS011;47864;52.526;19.672;2022-11-15T02:48:55;90.05;;;36.97;;
61907;SDS011;47864;52.526;19.672;2022-11-15T02:50:57;96.65;;;37.47;;
61907;SDS011;47864;52.526;19.672;2022-11-15T02:53:00;91.07;;;36.50;;
61907;SDS011;47864;52.526;19.672;2022-11-15T02:55:02;86.95;;;35.35;;
61907;SDS011;47864;52.526;19.672;2022-11-15T02:57:05;94.38;;;35.97;;
61907;SDS011;47864;52.526;19.672;2022-11-15T03:06:24;100.85;;;36.75;;
61907;SDS011;47864;52.526;19.672;2022-11-15T03:08:31;94.07;;;35.13;;
61907;SDS011;47864;52.526;19.672;2022-11-15T03:13:23;91.45;;;36.38;;
61907;SDS011;47864;52.526;19.672;2022-11-15T03:15:32;102.22;;;36.92;;
61907;SDS011;47864;52.526;19.672;2022-11-15T03:18:25;102.30;;;38.17;;
61907;SDS011;47864;52.526;19.672;2022-11-15T03:20:10;96.63;;;36.45;;
61907;SDS011;47864;52.526;19.672;2022-11-15T03:22:16;111.95;;;38.70;;
61907;SDS011;47864;52.526;19.672;2022-11-15T03:24:21;105.43;;;40.47;;
61907;SDS011;47864;52.526;19.672;2022-11-15T03:26:26;102.65;;;37.47;;
61907;SDS011;47864;52.526;19.672;2022-11-15T03:28:34;103.13;;;36.97;;
61907;SDS011;47864;52.526;19.672;2022-11-15T03:30:39;95.43;;;37.03;;
61907;SDS011;47864;52.526;19.672;2022-11-15T03:32:53;95.00;;;33.72;;
61907;SDS011;47864;52.526;19.672;2022-11-15T03:37:08;90.28;;;35.15;;
61907;SDS011;47864;52.526;19.672;2022-11-15T03:39:14;101.90;;;36.65;;
61907;SDS011;47864;52.526;19.672;2022-11-15T03:41:33;104.70;;;36.72;;
61907;SDS011;47864;52.526;19.672;2022-11-15T03:45:59;104.55;;;36.00;;
61907;SDS011;47864;52.526;19.672;2022-11-15T03:48:10;102.80;;;36.60;;
61907;SDS011;47864;52.526;19.672;2022-11-15T03:50:20;92.88;;;33.50;;
61907;SDS011;47864;52.526;19.672;2022-11-15T03:52:23;93.28;;;35.20;;
61907;SDS011;47864;52.526;19.672;2022-11-15T03:54:25;98.05;;;35.85;;
61907;SDS011;47864;52.526;19.672;2022-11-15T03:56:27;94.53;;;33.13;;
61907;SDS011;47864;52.526;19.672;2022-11-15T03:58:29;92.88;;;34.88;;
61907;SDS011;47864;52.526;19.672;2022-11-15T04:00:31;103.53;;;38.17;;
61907;SDS011;47864;52.526;19.672;2022-11-15T04:02:33;96.18;;;37.53;;
61907;SDS011;47864;52.526;19.672;2022-11-15T04:04:35;95.45;;;34.85;;
61907;SDS011;47864;52.526;19.672;2022-11-15T04:06:36;102.63;;;37.28;;
61907;SDS011;47864;52.526;19.672;2022-11-15T04:08:38;97.40;;;36.63;;
61907;SDS011;47864;52.526;19.672;2022-11-15T04:10:40;99.85;;;37.58;;
61907;SDS011;47864;52.526;19.672;2022-11-15T04:12:42;103.82;;;39.28;;
61907;SDS011;47864;52.526;19.672;2022-11-15T04:14:45;96.72;;;35.15;;
61907;SDS011;47864;52.526;19.672;2022-11-15T04:16:47;89.07;;;33.92;;
61907;SDS011;47864;52.526;19.672;2022-11-15T04:18:49;99.43;;;34.90;;
61907;SDS011;47864;52.526;19.672;2022-11-15T04:20:51;107.25;;;37.85;;
61907;SDS011;47864;52.526;19.672;2022-11-15T04:22:53;93.28;;;35.42;;
61907;SDS011;47864;52.526;19.672;2022-11-15T04:24:56;95.00;;;34.97;;
61907;SDS011;47864;52.526;19.672;2022-11-15T04:26:58;91.13;;;34.10;;
61907;SDS011;47864;52.526;19.672;2022-11-15T04:29:00;103.72;;;35.50;;
61907;SDS011;47864;52.526;19.672;2022-11-15T04:31:02;98.63;;;34.13;;
61907;SDS011;47864;52.526;19.672;2022-11-15T04:33:03;100.43;;;35.08;;
61907;SDS011;47864;52.526;19.672;2022-11-15T04:35:05;108.43;;;36.17;;
61907;SDS011;47864;52.526;19.672;2022-11-15T04:37:07;97.32;;;36.35;;
61907;SDS011;47864;52.526;19.672;2022-11-15T04:39:09;94.95;;;34.47;;
61907;SDS011;47864;52.526;19.672;2022-11-15T04:41:11;104.75;;;36.20;;
61907;SDS011;47864;52.526;19.672;2022-11-15T04:43:12;104.70;;;36.00;;
61907;SDS011;47864;52.526;19.672;2022-11-15T04:45:14;104.25;;;38.03;;
61907;SDS011;47864;52.526;19.672;2022-11-15T04:47:16;100.82;;;36.38;;
61907;SDS011;47864;52.526;19.672;2022-11-15T04:49:18;99.28;;;36.13;;
61907;SDS011;47864;52.526;19.672;2022-11-15T04:51:19;95.97;;;34.80;;
61907;SDS011;47864;52.526;19.672;2022-11-15T04:53:22;106.93;;;36.90;;
61907;SDS011;47864;52.526;19.672;2022-11-15T04:55:23;101.75;;;36.15;;
61907;SDS011;47864;52.526;19.672;2022-11-15T04:57:25;106.38;;;36.90;;
61907;SDS011;47864;52.526;19.672;2022-11-15T04:59:27;106.72;;;37.85;;
61907;SDS011;47864;52.526;19.672;2022-11-15T05:01:28;107.20;;;37.78;;
61907;SDS011;47864;52.526;19.672;2022-11-15T05:03:30;119.05;;;38.38;;
61907;SDS011;47864;52.526;19.672;2022-11-15T05:05:33;108.03;;;38.33;;
61907;SDS011;47864;52.526;19.672;2022-11-15T05:07:35;101.47;;;36.47;;
61907;SDS011;47864;52.526;19.672;2022-11-15T05:09:36;107.88;;;37.20;;
61907;SDS011;47864;52.526;19.672;2022-11-15T05:11:39;88.93;;;35.78;;
61907;SDS011;47864;52.526;19.672;2022-11-15T05:13:41;85.10;;;32.58;;
61907;SDS011;47864;52.526;19.672;2022-11-15T05:15:42;84.75;;;32.38;;
61907;SDS011;47864;52.526;19.672;2022-11-15T05:17:44;80.22;;;30.92;;
61907;SDS011;47864;52.526;19.672;2022-11-15T05:19:46;84.50;;;32.35;;
61907;SDS011;47864;52.526;19.672;2022-11-15T05:21:48;79.65;;;31.17;;
61907;SDS011;47864;52.526;19.672;2022-11-15T05:23:49;86.65;;;32.58;;
61907;SDS011;47864;52.526;19.672;2022-11-15T05:25:51;73.68;;;30.90;;
61907;SDS011;47864;52.526;19.672;2022-11-15T05:27:53;82.47;;;30.50;;
61907;SDS011;47864;52.526;19.672;2022-11-15T05:29:55;87.70;;;31.48;;
61907;SDS011;47864;52.526;19.672;2022-11-15T05:31:57;82.22;;;32.17;;
61907;SDS011;47864;52.526;19.672;2022-11-15T05:33:59;83.63;;;32.28;;
61907;SDS011;47864;52.526;19.672;2022-11-15T05:36:06;94.63;;;33.60;;
61907;SDS011;47864;52.526;19.672;2022-11-15T05:38:15;85.85;;;32.38;;
61907;SDS011;47864;52.526;19.672;2022-11-15T05:40:16;89.35;;;33.28;;
61907;SDS011;47864;52.526;19.672;2022-11-15T05:42:18;87.25;;;33.83;;
61907;SDS011;47864;52.526;19.672;2022-11-15T05:44:21;94.65;;;31.80;;
61907;SDS011;47864;52.526;19.672;2022-11-15T05:46:24;95.32;;;33.65;;
61907;SDS011;47864;52.526;19.672;2022-11-15T05:48:26;84.32;;;32.50;;
61907;SDS011;47864;52.526;19.672;2022-11-15T05:50:28;87.30;;;32.08;;
61907;SDS011;47864;52.526;19.672;2022-11-15T05:52:30;89.93;;;33.70;;
61907;SDS011;47864;52.526;19.672;2022-11-15T05:54:36;95.07;;;33.30;;
61907;SDS011;47864;52.526;19.672;2022-11-15T05:56:38;88.40;;;31.98;;
61907;SDS011;47864;52.526;19.672;2022-11-15T05:58:40;92.20;;;32.90;;
61907;SDS011;47864;52.526;19.672;2022-11-15T06:00:43;90.90;;;32.67;;
61907;SDS011;47864;52.526;19.672;2022-11-15T06:02:45;81.72;;;30.30;;
61907;SDS011;47864;52.526;19.672;2022-11-15T06:04:47;87.15;;;31.45;;
61907;SDS011;47864;52.526;19.672;2022-11-15T06:06:49;85.43;;;31.73;;
61907;SDS011;47864;52.526;19.672;2022-11-15T06:08:51;81.40;;;30.20;;
61907;SDS011;47864;52.526;19.672;2022-11-15T06:10:52;85.70;;;31.27;;
61907;SDS011;47864;52.526;19.672;2022-11-15T06:12:58;85.28;;;31.02;;
61907;SDS011;47864;52.526;19.672;2022-11-15T06:15:09;79.95;;;30.33;;
61907;SDS011;47864;52.526;19.672;2022-11-15T06:17:10;89.90;;;32.13;;
61907;SDS011;47864;52.526;19.672;2022-11-15T06:19:12;92.85;;;31.17;;
61907;SDS011;47864;52.526;19.672;2022-11-15T06:21:14;84.95;;;29.85;;
61907;SDS011;47864;52.526;19.672;2022-11-15T06:23:16;92.30;;;31.23;;
61907;SDS011;47864;52.526;19.672;2022-11-15T06:25:18;86.00;;;31.10;;
61907;SDS011;47864;52.526;19.672;2022-11-15T06:27:19;88.78;;;32.53;;
61907;SDS011;47864;52.526;19.672;2022-11-15T06:29:21;90.80;;;31.95;;
61907;SDS011;47864;52.526;19.672;2022-11-15T06:31:23;88.45;;;30.48;;
61907;SDS011;47864;52.526;19.672;2022-11-15T06:33:25;84.45;;;30.90;;
61907;SDS011;47864;52.526;19.672;2022-11-15T06:35:27;94.93;;;32.45;;
61907;SDS011;47864;52.526;19.672;2022-11-15T06:37:30;89.90;;;31.13;;
61907;SDS011;47864;52.526;19.672;2022-11-15T06:39:31;89.25;;;31.92;;
61907;SDS011;47864;52.526;19.672;2022-11-15T06:41:34;88.47;;;32.00;;
61907;SDS011;47864;52.526;19.672;2022-11-15T06:43:36;98.95;;;32.40;;
61907;SDS011;47864;52.526;19.672;2022-11-15T06:45:38;89.55;;;32.33;;
61907;SDS011;47864;52.526;19.672;2022-11-15T06:47:46;96.05;;;33.80;;
61907;SDS011;47864;52.526;19.672;2022-11-15T06:49:48;97.25;;;33.67;;
61907;SDS011;47864;52.526;19.672;2022-11-15T06:51:50;93.90;;;33.83;;
61907;SDS011;47864;52.526;19.672;2022-11-15T06:53:51;103.13;;;34.38;;
61907;SDS011;47864;52.526;19.672;2022-11-15T06:55:56;95.22;;;32.55;;
61907;SDS011;47864;52.526;19.672;2022-11-15T06:58:00;92.63;;;33.45;;
61907;SDS011;47864;52.526;19.672;2022-11-15T07:00:05;89.28;;;32.50;;
61907;SDS011;47864;52.526;19.672;2022-11-15T07:02:11;91.20;;;32.42;;
61907;SDS011;47864;52.526;19.672;2022-11-15T07:04:14;104.57;;;36.65;;
61907;SDS011;47864;52.526;19.672;2022-11-15T07:06:16;87.97;;;31.80;;
61907;SDS011;47864;52.526;19.672;2022-11-15T07:08:17;95.50;;;34.28;;
61907;SDS011;47864;52.526;19.672;2022-11-15T07:10:20;100.88;;;34.83;;
61907;SDS011;47864;52.526;19.672;2022-11-15T07:12:22;96.50;;;32.67;;
61907;SDS011;47864;52.526;19.672;2022-11-15T07:14:24;89.22;;;32.65;;
61907;SDS011;47864;52.526;19.672;2022-11-15T07:16:26;94.00;;;31.65;;
61907;SDS011;47864;52.526;19.672;2022-11-15T07:18:27;95.65;;;32.33;;
61907;SDS011;47864;52.526;19.672;2022-11-15T07:20:29;97.90;;;33.20;;
61907;SDS011;47864;52.526;19.672;2022-11-15T07:22:31;96.78;;;33.47;;
61907;SDS011;47864;52.526;19.672;2022-11-15T07:24:33;97.10;;;32.72;;
61907;SDS011;47864;52.526;19.672;2022-11-15T07:26:35;99.20;;;34.13;;
61907;SDS011;47864;52.526;19.672;2022-11-15T07:28:36;96.10;;;34.65;;
61907;SDS011;47864;52.526;19.672;2022-11-15T07:30:38;95.57;;;33.00;;
61907;SDS011;47864;52.526;19.672;2022-11-15T07:32:45;101.32;;;34.70;;
61907;SDS011;47864;52.526;19.672;2022-11-15T07:34:47;99.10;;;35.15;;
61907;SDS011;47864;52.526;19.672;2022-11-15T07:36:49;97.65;;;33.22;;
61907;SDS011;47864;52.526;19.672;2022-11-15T07:38:51;100.47;;;34.47;;
61907;SDS011;47864;52.526;19.672;2022-11-15T07:40:56;86.93;;;33.00;;
61907;SDS011;47864;52.526;19.672;2022-11-15T07:43:03;87.43;;;31.70;;
61907;SDS011;47864;52.526;19.672;2022-11-15T07:45:07;101.43;;;33.80;;
61907;SDS011;47864;52.526;19.672;2022-11-15T07:47:09;95.05;;;35.45;;
61907;SDS011;47864;52.526;19.672;2022-11-15T07:49:11;97.70;;;35.75;;
61907;SDS011;47864;52.526;19.672;2022-11-15T07:51:14;93.28;;;37.15;;
61907;SDS011;47864;52.526;19.672;2022-11-15T07:53:16;95.78;;;32.53;;
61907;SDS011;47864;52.526;19.672;2022-11-15T07:55:18;86.25;;;31.25;;
61907;SDS011;47864;52.526;19.672;2022-11-15T07:57:20;91.88;;;31.23;;
61907;SDS011;47864;52.526;19.672;2022-11-15T07:59:22;91.60;;;32.88;;
61907;SDS011;47864;52.526;19.672;2022-11-15T08:01:23;91.95;;;32.95;;
61907;SDS011;47864;52.526;19.672;2022-11-15T08:03:25;89.82;;;32.45;;
61907;SDS011;47864;52.526;19.672;2022-11-15T08:05:27;91.50;;;32.00;;
61907;SDS011;47864;52.526;19.672;2022-11-15T08:07:29;91.25;;;33.33;;
61907;SDS011;47864;52.526;19.672;2022-11-15T08:09:32;83.00;;;31.20;;
61907;SDS011;47864;52.526;19.672;2022-11-15T08:11:34;80.68;;;31.35;;
61907;SDS011;47864;52.526;19.672;2022-11-15T08:13:35;79.55;;;31.10;;
61907;SDS011;47864;52.526;19.672;2022-11-15T08:15:38;85.07;;;32.20;;
61907;SDS011;47864;52.526;19.672;2022-11-15T08:17:40;88.03;;;31.33;;
61907;SDS011;47864;52.526;19.672;2022-11-15T08:19:41;90.88;;;32.58;;
61907;SDS011;47864;52.526;19.672;2022-11-15T08:21:43;84.97;;;31.55;;
61907;SDS011;47864;52.526;19.672;2022-11-15T08:23:45;82.75;;;31.70;;
61907;SDS011;47864;52.526;19.672;2022-11-15T08:25:47;94.22;;;33.50;;
61907;SDS011;47864;52.526;19.672;2022-11-15T08:27:51;88.55;;;32.85;;
61907;SDS011;47864;52.526;19.672;2022-11-15T08:30:03;115.20;;;52.72;;
61907;SDS011;47864;52.526;19.672;2022-11-15T08:32:05;79.78;;;32.17;;
61907;SDS011;47864;52.526;19.672;2022-11-15T08:34:07;77.18;;;30.83;;
61907;SDS011;47864;52.526;19.672;2022-11-15T08:36:11;83.03;;;31.42;;
61907;SDS011;47864;52.526;19.672;2022-11-15T08:38:16;78.95;;;31.23;;
61907;SDS011;47864;52.526;19.672;2022-11-15T08:40:17;90.78;;;35.53;;
61907;SDS011;47864;52.526;19.672;2022-11-15T08:42:19;96.40;;;37.47;;
61907;SDS011;47864;52.526;19.672;2022-11-15T08:44:21;87.53;;;35.63;;
61907;SDS011;47864;52.526;19.672;2022-11-15T08:46:24;85.70;;;33.67;;
61907;SDS011;47864;52.526;19.672;2022-11-15T08:48:26;85.90;;;33.08;;
61907;SDS011;47864;52.526;19.672;2022-11-15T08:50:27;77.28;;;29.50;;
61907;SDS011;47864;52.526;19.672;2022-11-15T08:52:29;74.68;;;29.92;;
61907;SDS011;47864;52.526;19.672;2022-11-15T08:54:31;70.80;;;28.42;;
61907;SDS011;47864;52.526;19.672;2022-11-15T08:56:33;75.43;;;29.90;;
61907;SDS011;47864;52.526;19.672;2022-11-15T08:58:35;75.70;;;30.27;;
61907;SDS011;47864;52.526;19.672;2022-11-15T09:00:37;87.75;;;33.70;;
61907;SDS011;47864;52.526;19.672;2022-11-15T09:02:39;77.07;;;28.67;;
61907;SDS011;47864;52.526;19.672;2022-11-15T09:04:41;73.90;;;28.73;;
61907;SDS011;47864;52.526;19.672;2022-11-15T09:06:44;66.50;;;27.87;;
61907;SDS011;47864;52.526;19.672;2022-11-15T09:08:46;65.30;;;27.60;;
61907;SDS011;47864;52.526;19.672;2022-11-15T09:10:49;63.88;;;27.25;;
61907;SDS011;47864;52.526;19.672;2022-11-15T09:12:50;67.90;;;27.20;;
61907;SDS011;47864;52.526;19.672;2022-11-15T09:14:52;73.40;;;27.90;;
61907;SDS011;47864;52.526;19.672;2022-11-15T09:16:54;79.28;;;29.27;;
61907;SDS011;47864;52.526;19.672;2022-11-15T09:18:56;69.78;;;28.77;;
61907;SDS011;47864;52.526;19.672;2022-11-15T09:20:58;81.25;;;29.45;;
61907;SDS011;47864;52.526;19.672;2022-11-15T09:23:01;77.88;;;30.98;;
61907;SDS011;47864;52.526;19.672;2022-11-15T09:25:04;70.18;;;28.70;;
61907;SDS011;47864;52.526;19.672;2022-11-15T09:27:11;70.63;;;29.00;;
61907;SDS011;47864;52.526;19.672;2022-11-15T09:29:13;88.65;;;33.83;;
61907;SDS011;47864;52.526;19.672;2022-11-15T09:31:15;69.50;;;30.08;;
61907;SDS011;47864;52.526;19.672;2022-11-15T09:33:22;77.15;;;29.02;;
61907;SDS011;47864;52.526;19.672;2022-11-15T09:35:24;73.10;;;29.02;;
61907;SDS011;47864;52.526;19.672;2022-11-15T09:37:26;75.10;;;29.65;;
61907;SDS011;47864;52.526;19.672;2022-11-15T09:39:28;70.35;;;27.80;;
61907;SDS011;47864;52.526;19.672;2022-11-15T09:46:44;80.47;;;29.23;;
61907;SDS011;47864;52.526;19.672;2022-11-15T09:49:08;72.65;;;29.52;;
61907;SDS011;47864;52.526;19.672;2022-11-15T09:51:14;81.03;;;30.70;;
61907;SDS011;47864;52.526;19.672;2022-11-15T09:56:20;81.85;;;32.75;;
61907;SDS011;47864;52.526;19.672;2022-11-15T09:58:28;77.93;;;29.45;;
61907;SDS011;47864;52.526;19.672;2022-11-15T10:00:38;82.15;;;29.77;;
61907;SDS011;47864;52.526;19.672;2022-11-15T10:05:20;79.65;;;29.75;;
61907;SDS011;47864;52.526;19.672;2022-11-15T10:07:26;80.22;;;30.55;;
61907;SDS011;47864;52.526;19.672;2022-11-15T10:09:53;78.80;;;29.48;;
61907;SDS011;47864;52.526;19.672;2022-11-15T10:12:00;63.88;;;25.63;;
61907;SDS011;47864;52.526;19.672;2022-11-15T10:14:08;59.15;;;24.80;;
61907;SDS011;47864;52.526;19.672;2022-11-15T10:20:58;75.13;;;28.90;;
61907;SDS011;47864;52.526;19.672;2022-11-15T10:23:06;71.47;;;28.70;;
61907;SDS011;47864;52.526;19.672;2022-11-15T10:25:18;69.05;;;28.92;;
61907;SDS011;47864;52.526;19.672;2022-11-15T10:27:24;73.50;;;29.13;;
61907;SDS011;47864;52.526;19.672;2022-11-15T10:29:26;72.75;;;26.98;;
61907;SDS011;47864;52.526;19.672;2022-11-15T10:31:28;69.90;;;27.15;;
61907;SDS011;47864;52.526;19.672;2022-11-15T10:33:37;97.60;;;40.97;;
61907;SDS011;47864;52.526;19.672;2022-11-15T10:35:40;79.85;;;32.55;;
61907;SDS011;47864;52.526;19.672;2022-11-15T10:37:42;77.10;;;30.10;;
61907;SDS011;47864;52.526;19.672;2022-11-15T10:39:44;67.72;;;28.00;;
61907;SDS011;47864;52.526;19.672;2022-11-15T10:42:17;65.97;;;26.70;;
61907;SDS011;47864;52.526;19.672;2022-11-15T10:44:30;67.28;;;27.40;;
61907;SDS011;47864;52.526;19.672;2022-11-15T10:46:33;75.50;;;28.77;;
61907;SDS011;47864;52.526;19.672;2022-11-15T10:48:52;74.18;;;29.83;;
61907;SDS011;47864;52.526;19.672;2022-11-15T10:50:54;72.70;;;28.65;;
61907;SDS011;47864;52.526;19.672;2022-11-15T10:52:57;70.18;;;27.98;;
61907;SDS011;47864;52.526;19.672;2022-11-15T10:57:18;76.10;;;30.08;;
61907;SDS011;47864;52.526;19.672;2022-11-15T10:59:24;81.22;;;38.33;;
61907;SDS011;47864;52.526;19.672;2022-11-15T11:01:29;73.68;;;31.25;;
61907;SDS011;47864;52.526;19.672;2022-11-15T11:03:35;72.63;;;28.67;;
61907;SDS011;47864;52.526;19.672;2022-11-15T11:05:39;71.95;;;28.45;;
61907;SDS011;47864;52.526;19.672;2022-11-15T11:07:43;69.35;;;28.55;;
61907;SDS011;47864;52.526;19.672;2022-11-15T11:10:03;63.63;;;26.23;;
61907;SDS011;47864;52.526;19.672;2022-11-15T11:12:42;69.55;;;26.77;;
61907;SDS011;47864;52.526;19.672;2022-11-15T11:14:44;74.90;;;28.00;;
61907;SDS011;47864;52.526;19.672;2022-11-15T11:21:55;68.95;;;27.52;;
61907;SDS011;47864;52.526;19.672;2022-11-15T11:23:59;70.75;;;28.30;;
61907;SDS011;47864;52.526;19.672;2022-11-15T11:28:42;62.45;;;26.77;;
61907;SDS011;47864;52.526;19.672;2022-11-15T11:33:20;61.33;;;25.00;;
61907;SDS011;47864;52.526;19.672;2022-11-15T11:43:24;60.42;;;26.83;;
61907;SDS011;47864;52.526;19.672;2022-11-15T11:47:46;61.38;;;27.30;;
61907;SDS011;47864;52.526;19.672;2022-11-15T11:49:50;57.17;;;27.83;;
61907;SDS011;47864;52.526;19.672;2022-11-15T11:52:30;55.28;;;24.33;;
61907;SDS011;47864;52.526;19.672;2022-11-15T11:54:36;53.90;;;25.67;;
61907;SDS011;47864;52.526;19.672;2022-11-15T11:56:40;81.43;;;34.97;;
61907;SDS011;47864;52.526;19.672;2022-11-15T11:58:45;64.43;;;28.42;;
61907;SDS011;47864;52.526;19.672;2022-11-15T12:00:52;138.77;;;52.63;;
61907;SDS011;47864;52.526;19.672;2022-11-15T12:03:05;59.55;;;26.15;;
61907;SDS011;47864;52.526;19.672;2022-11-15T12:05:11;56.75;;;26.05;;
61907;SDS011;47864;52.526;19.672;2022-11-15T12:07:29;62.75;;;26.25;;
61907;SDS011;47864;52.526;19.672;2022-11-15T12:09:36;62.78;;;29.55;;
61907;SDS011;47864;52.526;19.672;2022-11-15T12:13:53;69.35;;;28.90;;
61907;SDS011;47864;52.526;19.672;2022-11-15T12:18:16;92.03;;;37.17;;
61907;SDS011;47864;52.526;19.672;2022-11-15T12:20:23;115.70;;;42.15;;
61907;SDS011;47864;52.526;19.672;2022-11-15T12:22:33;80.53;;;32.40;;
61907;SDS011;47864;52.526;19.672;2022-11-15T12:24:44;88.90;;;35.47;;
61907;SDS011;47864;52.526;19.672;2022-11-15T12:27:00;85.00;;;34.80;;
61907;SDS011;47864;52.526;19.672;2022-11-15T12:29:19;81.72;;;33.50;;
61907;SDS011;47864;52.526;19.672;2022-11-15T12:33:43;88.47;;;36.03;;
61907;SDS011;47864;52.526;19.672;2022-11-15T12:35:56;94.63;;;35.33;;
61907;SDS011;47864;52.526;19.672;2022-11-15T12:38:00;91.88;;;36.40;;
61907;SDS011;47864;52.526;19.672;2022-11-15T12:40:04;101.82;;;39.17;;
61907;SDS011;47864;52.526;19.672;2022-11-15T12:48:55;89.97;;;36.95;;
61907;SDS011;47864;52.526;19.672;2022-11-15T12:50:59;76.88;;;34.03;;
61907;SDS011;47864;52.526;19.672;2022-11-15T12:53:25;83.72;;;34.70;;
61907;SDS011;47864;52.526;19.672;2022-11-15T12:55:29;104.55;;;44.00;;
61907;SDS011;47864;52.526;19.672;2022-11-15T12:57:36;110.50;;;45.10;;
61907;SDS011;47864;52.526;19.672;2022-11-15T12:59:49;82.45;;;36.00;;
61907;SDS011;47864;52.526;19.672;2022-11-15T13:01:59;79.28;;;35.95;;
61907;SDS011;47864;52.526;19.672;2022-11-15T13:06:41;85.45;;;38.20;;
61907;SDS011;47864;52.526;19.672;2022-11-15T13:10:48;91.85;;;41.03;;
61907;SDS011;47864;52.526;19.672;2022-11-15T13:12:51;82.00;;;38.72;;
61907;SDS011;47864;52.526;19.672;2022-11-15T13:19:20;104.57;;;48.90;;
61907;SDS011;47864;52.526;19.672;2022-11-15T13:21:24;90.30;;;45.55;;
61907;SDS011;47864;52.526;19.672;2022-11-15T13:23:26;102.43;;;48.75;;
61907;SDS011;47864;52.526;19.672;2022-11-15T13:27:42;110.57;;;54.38;;
61907;SDS011;47864;52.526;19.672;2022-11-15T13:29:44;113.32;;;52.65;;